Time;durP1;ratioP1;P1;durP2;ratioP2;P2;SDS_P1;SDS_P2;PMS_P1;PMS_P2;Temp;Humidity;BMP_temperature;BMP_pressure;BME280_temperature;BME280_humidity;BME280_pressure;Samples;Min_cycle;Max_cycle;Signal;HPM_P1;HPM_P2
2022/06/19 00:00:39;;;;;;;20.63;5.90;;;29.10;57.00;;;;;;5025225;28;20024;-62
2022/06/19 00:03:07;;;;;;;13.27;5.75;;;29.00;57.10;;;;;;5010719;28;20045;-61
2022/06/19 00:05:32;;;;;;;17.83;6.32;;;29.00;57.20;;;;;;5012039;28;20025;-62
2022/06/19 00:07:58;;;;;;;13.07;6.00;;;28.90;57.30;;;;;;5012176;28;20174;-61
2022/06/19 00:10:23;;;;;;;14.55;5.40;;;28.90;57.40;;;;;;5023863;28;20629;-61
2022/06/19 00:12:49;;;;;;;18.83;5.43;;;28.90;57.40;;;;;;5034035;28;20020;-61
2022/06/19 00:15:16;;;;;;;13.68;5.80;;;28.80;57.50;;;;;;5033037;28;20028;-62
2022/06/19 00:17:41;;;;;;;15.48;5.63;;;28.80;57.50;;;;;;5025032;28;20032;-61
2022/06/19 00:20:07;;;;;;;15.15;6.10;;;28.80;57.60;;;;;;5038327;28;20072;-62
2022/06/19 00:22:33;;;;;;;16.58;5.70;;;28.70;57.60;;;;;;5051382;28;20029;-62
2022/06/19 00:24:59;;;;;;;17.08;5.40;;;28.70;57.70;;;;;;5044416;28;20035;-63
2022/06/19 00:27:25;;;;;;;20.90;5.47;;;28.70;57.80;;;;;;5027964;28;20025;-62
2022/06/19 00:29:51;;;;;;;14.43;5.65;;;28.70;57.80;;;;;;5023834;28;20065;-62
2022/06/19 00:32:18;;;;;;;18.50;5.45;;;28.60;57.80;;;;;;5024897;28;20559;-62
2022/06/19 00:34:43;;;;;;;12.27;5.22;;;28.60;57.90;;;;;;5045123;28;20020;-61
2022/06/19 00:37:09;;;;;;;15.27;5.43;;;28.50;57.90;;;;;;5046016;28;20049;-61
2022/06/19 00:39:40;;;;;;;15.68;4.60;;;28.50;58.10;;;;;;5044315;28;20548;-62
2022/06/19 00:42:15;;;;;;;18.17;5.20;;;28.50;58.20;;;;;;5041304;28;20161;-62
2022/06/19 00:44:40;;;;;;;15.33;5.30;;;28.40;58.20;;;;;;5012938;28;20488;-61
2022/06/19 00:47:34;;;;;;;11.95;4.90;;;28.40;58.30;;;;;;5035194;28;20060;-62
2022/06/19 00:50:23;;;;;;;11.57;4.80;;;28.30;58.30;;;;;;5033727;28;20303;-62
2022/06/19 00:52:49;;;;;;;12.48;4.85;;;28.30;58.50;;;;;;5005067;28;20190;-62
2022/06/19 00:55:23;;;;;;;16.90;5.20;;;28.30;58.60;;;;;;5005622;28;20113;-61
2022/06/19 00:58:10;;;;;;;12.82;4.60;;;28.20;58.60;;;;;;5026788;28;20017;-61
2022/06/19 01:00:36;;;;;;;18.23;4.70;;;28.20;58.80;;;;;;5016981;28;20020;-61
2022/06/19 01:03:15;;;;;;;12.93;5.25;;;28.20;58.90;;;;;;5028030;28;20378;-63
2022/06/19 01:05:41;;;;;;;15.30;4.97;;;28.10;59.60;;;;;;5010494;28;20078;-62
2022/06/19 01:08:06;;;;;;;15.73;5.30;;;28.10;59.10;;;;;;5000812;28;20029;-62
2022/06/19 01:10:33;;;;;;;12.00;4.70;;;28.00;59.20;;;;;;5024183;28;20097;-61
2022/06/19 01:12:58;;;;;;;14.98;4.88;;;28.00;59.30;;;;;;5016268;28;20040;-61
2022/06/19 01:15:24;;;;;;;15.30;4.80;;;28.00;59.40;;;;;;5028637;28;20749;-62
2022/06/19 01:17:52;;;;;;;15.38;5.20;;;28.00;59.50;;;;;;5007305;28;20505;-62
2022/06/19 01:20:17;;;;;;;13.25;5.03;;;27.90;59.60;;;;;;5019584;28;20051;-61
2022/06/19 01:23:23;;;;;;;14.40;5.32;;;27.90;59.80;;;;;;5019773;28;20045;-62
2022/06/19 01:25:49;;;;;;;15.15;6.15;;;27.90;60.00;;;;;;4953584;28;20084;-62
2022/06/19 01:31:04;;;;;;;13.02;5.55;;;27.80;60.30;;;;;;5023319;28;20098;-62
2022/06/19 01:33:39;;;;;;;10.52;5.47;;;27.70;60.30;;;;;;5008395;28;20014;-62
2022/06/19 01:36:05;;;;;;;;;;;27.70;60.30;;;;;;5025756;28;20431;-61
2022/06/19 01:38:30;;;;;;;;;;;27.70;60.50;;;;;;5027784;28;19909;-62
2022/06/19 01:40:59;;;;;;;15.37;5.23;;;27.70;60.50;;;;;;5047005;28;19912;-61
2022/06/19 01:43:24;;;;;;;16.90;5.32;;;27.70;60.70;;;;;;5026332;28;20384;-61
2022/06/19 01:45:52;;;;;;;15.38;5.53;;;27.70;60.80;;;;;;5025288;28;20017;-61
2022/06/19 01:48:19;;;;;;;17.02;5.40;;;27.60;60.70;;;;;;5026814;28;20056;-62
2022/06/19 01:50:44;;;;;;;13.80;4.95;;;27.60;60.90;;;;;;5008670;28;20108;-62
2022/06/19 01:53:29;;;;;;;15.23;4.78;;;27.50;60.90;;;;;;5036186;28;20117;-61
2022/06/19 01:55:55;;;;;;;16.02;5.55;;;27.50;61.00;;;;;;5003182;28;20025;-62
2022/06/19 01:58:21;;;;;;;12.45;4.43;;;27.50;61.10;;;;;;5045174;28;20021;-62
2022/06/19 02:00:48;;;;;;;13.85;5.28;;;27.50;61.30;;;;;;5001009;28;20030;-62
2022/06/19 02:03:29;;;;;;;16.23;4.82;;;27.40;61.20;;;;;;5024226;28;20041;-62
2022/06/19 02:05:55;;;;;;;13.30;4.65;;;27.40;61.30;;;;;;5019671;28;20034;-61
2022/06/19 02:08:21;;;;;;;16.90;5.57;;;27.40;61.40;;;;;;5020175;28;20040;-62
2022/06/19 02:10:46;;;;;;;15.30;4.47;;;27.40;61.50;;;;;;5027670;28;20033;-62
2022/06/19 02:13:13;;;;;;;12.70;4.45;;;27.40;61.60;;;;;;5039767;28;20094;-62
2022/06/19 02:15:39;;;;;;;14.75;5.45;;;27.30;61.60;;;;;;5037223;28;20017;-61
2022/06/19 02:18:05;;;;;;;11.43;4.50;;;27.30;62.30;;;;;;5035163;28;20767;-62
2022/06/19 02:20:31;;;;;;;14.40;5.13;;;27.30;61.80;;;;;;5011987;28;20032;-62
2022/06/19 02:22:57;;;;;;;23.13;5.40;;;27.30;61.90;;;;;;5031295;28;20033;-62
2022/06/19 02:25:23;;;;;;;16.00;4.88;;;27.20;61.90;;;;;;5020943;28;20129;-62
2022/06/19 02:27:48;;;;;;;11.75;4.53;;;27.20;61.90;;;;;;5022984;28;20085;-61
2022/06/19 02:30:14;;;;;;;15.35;5.30;;;27.20;62.10;;;;;;5037580;28;20131;-62
2022/06/19 02:32:45;;;;;;;15.40;4.75;;;27.20;62.20;;;;;;5042978;28;20029;-62
2022/06/19 02:35:29;;;;;;;15.13;5.00;;;27.10;62.20;;;;;;5025557;28;20099;-62
2022/06/19 02:37:55;;;;;;;16.30;5.22;;;27.20;62.40;;;;;;5053406;28;20133;-61
2022/06/19 02:40:41;;;;;;;11.48;4.53;;;27.10;62.40;;;;;;5029716;28;20551;-64
2022/06/19 02:43:18;;;;;;;13.02;4.97;;;27.10;62.60;;;;;;5029749;28;20020;-61
2022/06/19 02:45:44;;;;;;;15.60;4.80;;;27.10;62.70;;;;;;5030513;28;20090;-62
2022/06/19 02:48:20;;;;;;;13.35;5.50;;;27.10;62.70;;;;;;5029660;28;20083;-61
2022/06/19 02:50:45;;;;;;;15.15;5.03;;;27.00;62.70;;;;;;5013437;28;20029;-61
2022/06/19 02:53:11;;;;;;;12.02;5.50;;;27.00;62.80;;;;;;5049138;28;20124;-62
2022/06/19 02:55:36;;;;;;;16.23;5.18;;;26.90;62.90;;;;;;5031210;28;20481;-61
2022/06/19 02:58:02;;;;;;;12.70;4.78;;;26.90;63.10;;;;;;5037713;28;20033;-61
2022/06/19 03:00:27;;;;;;;14.63;5.55;;;26.90;63.10;;;;;;5049293;28;20044;-62
2022/06/19 03:03:06;;;;;;;14.18;5.53;;;26.90;63.20;;;;;;5038649;28;20040;-62
2022/06/19 03:05:31;;;;;;;12.77;5.07;;;26.90;63.30;;;;;;5029943;28;20461;-61
2022/06/19 03:07:57;;;;;;;17.17;5.80;;;26.80;63.30;;;;;;5036541;28;20032;-62
2022/06/19 03:10:23;;;;;;;8.85;4.85;;;26.80;63.50;;;;;;5028081;28;20020;-61
2022/06/19 03:12:48;;;;;;;11.48;4.80;;;26.80;63.60;;;;;;5043448;28;20036;-62
2022/06/19 03:15:14;;;;;;;14.85;4.95;;;26.80;63.80;;;;;;5048968;28;20489;-62
2022/06/19 03:17:40;;;;;;;11.35;4.85;;;26.70;63.70;;;;;;5028652;28;20029;-61
2022/06/19 03:20:06;;;;;;;18.52;5.18;;;26.70;63.90;;;;;;5045644;28;20122;-62
2022/06/19 03:22:31;;;;;;;15.13;4.50;;;26.70;63.90;;;;;;5026248;28;20374;-62
2022/06/19 03:24:57;;;;;;;16.95;4.88;;;26.70;64.70;;;;;;5045009;28;20107;-61
2022/06/19 03:27:22;;;;;;;14.88;4.40;;;26.60;64.00;;;;;;5030639;28;20040;-62
2022/06/19 03:29:48;;;;;;;14.80;5.25;;;26.60;64.20;;;;;;5016002;28;20155;-62
2022/06/19 03:32:14;;;;;;;16.27;4.38;;;26.60;64.40;;;;;;5016453;28;20046;-62
2022/06/19 03:34:40;;;;;;;13.70;5.00;;;26.50;64.30;;;;;;5029543;28;20025;-61
2022/06/19 03:37:05;;;;;;;12.52;4.68;;;26.50;64.40;;;;;;5033839;28;20395;-61
2022/06/19 03:39:31;;;;;;;17.83;4.43;;;26.50;64.50;;;;;;5038903;28;20029;-61
2022/06/19 03:41:56;;;;;;;11.65;4.38;;;26.50;64.60;;;;;;5034260;28;20021;-62
2022/06/19 03:44:22;;;;;;;13.90;5.15;;;26.50;64.70;;;;;;5038187;28;20021;-61
2022/06/19 03:46:47;;;;;;;15.27;4.90;;;26.40;64.70;;;;;;5053728;28;20037;-62
2022/06/19 03:49:13;;;;;;;18.17;4.82;;;26.40;64.80;;;;;;5039347;28;20107;-61
2022/06/19 03:51:38;;;;;;;17.05;4.47;;;26.40;65.00;;;;;;5055242;28;20095;-61
2022/06/19 03:54:07;;;;;;;14.07;4.95;;;26.40;65.10;;;;;;5050565;28;20037;-61
2022/06/19 03:56:32;;;;;;;13.13;4.63;;;26.30;65.10;;;;;;5045828;28;20052;-61
2022/06/19 03:58:58;;;;;;;11.80;4.28;;;26.30;65.30;;;;;;5024293;28;20475;-61
2022/06/19 04:01:28;;;;;;;15.38;4.95;;;26.30;65.30;;;;;;5009602;28;20032;-62
2022/06/19 04:03:55;;;;;;;14.05;4.13;;;26.30;65.40;;;;;;5003175;28;20037;-61
2022/06/19 04:06:22;;;;;;;10.77;3.85;;;26.30;65.50;;;;;;5019330;28;20060;-61
2022/06/19 04:08:47;;;;;;;16.23;5.00;;;26.30;65.50;;;;;;5010429;28;20021;-62
2022/06/19 04:11:14;;;;;;;20.67;4.78;;;26.20;65.50;;;;;;5014170;28;20124;-61
2022/06/19 04:13:39;;;;;;;12.57;4.32;;;26.20;65.50;;;;;;5028595;28;20782;-61
2022/06/19 04:16:06;;;;;;;11.40;4.43;;;26.20;65.70;;;;;;5013984;28;20024;-60
2022/06/19 04:18:32;;;;;;;13.35;4.40;;;26.20;65.80;;;;;;5031323;28;20032;-60
2022/06/19 04:20:58;;;;;;;17.42;4.65;;;26.20;65.80;;;;;;5003813;28;20021;-62
2022/06/19 04:23:24;;;;;;;14.85;4.60;;;26.10;65.80;;;;;;5011816;28;20670;-61
2022/06/19 04:25:51;;;;;;;11.27;4.20;;;26.10;65.90;;;;;;5029533;28;20476;-62
2022/06/19 04:28:18;;;;;;;13.65;4.63;;;26.10;65.90;;;;;;5024341;28;20051;-62
2022/06/19 04:30:47;;;;;;;14.75;5.05;;;26.10;65.90;;;;;;5036244;28;20032;-61
2022/06/19 04:33:16;;;;;;;11.75;3.55;;;26.10;66.10;;;;;;5065328;28;20094;-62
2022/06/19 04:35:42;;;;;;;15.02;4.82;;;26.10;66.10;;;;;;5037426;28;20029;-62
2022/06/19 04:38:07;;;;;;;15.05;5.60;;;26.10;66.10;;;;;;5042153;28;20116;-61
2022/06/19 04:40:34;;;;;;;11.93;5.22;;;26.00;66.10;;;;;;5035649;28;20024;-62
2022/06/19 04:43:00;;;;;;;14.85;4.72;;;26.00;66.20;;;;;;5038472;28;20493;-61
2022/06/19 04:45:25;;;;;;;16.88;5.15;;;26.00;66.30;;;;;;5053864;28;20071;-62
2022/06/19 04:47:50;;;;;;;16.23;5.15;;;26.00;66.30;;;;;;5056565;28;20057;-61
2022/06/19 04:50:16;;;;;;;15.18;4.50;;;26.00;66.40;;;;;;5056201;28;20116;-61
2022/06/19 04:52:42;;;;;;;10.75;4.82;;;26.00;66.40;;;;;;5023221;28;20051;-61
2022/06/19 04:55:09;;;;;;;11.43;4.50;;;26.00;66.40;;;;;;5042615;28;20056;-61
2022/06/19 04:57:34;;;;;;;12.65;4.45;;;26.00;66.40;;;;;;5029370;28;20047;-61
2022/06/19 05:00:00;;;;;;;14.35;4.55;;;25.90;66.40;;;;;;5057500;28;20025;-62
2022/06/19 05:02:26;;;;;;;17.38;4.97;;;26.00;66.50;;;;;;5054495;28;20037;-61
2022/06/19 05:04:51;;;;;;;10.05;4.57;;;25.90;66.50;;;;;;5058735;28;20431;-62
2022/06/19 05:07:17;;;;;;;9.35;4.57;;;26.00;66.50;;;;;;5058548;28;20550;-62
2022/06/19 05:09:42;;;;;;;14.18;5.07;;;25.90;66.50;;;;;;5052200;28;20050;-62
2022/06/19 05:12:08;;;;;;;13.48;4.22;;;25.90;66.60;;;;;;5032949;28;20025;-61
2022/06/19 05:14:33;;;;;;;17.70;4.78;;;25.90;66.60;;;;;;5026604;28;20183;-62
2022/06/19 05:16:59;;;;;;;16.98;5.38;;;25.90;66.60;;;;;;5011790;28;20034;-61
2022/06/19 05:19:25;;;;;;;11.27;4.35;;;25.90;66.70;;;;;;5046618;28;20096;-62
2022/06/19 05:21:50;;;;;;;15.88;5.03;;;25.90;66.80;;;;;;5048195;28;20032;-62
2022/06/19 05:24:16;;;;;;;10.75;3.97;;;25.90;66.80;;;;;;5026700;28;20025;-60
2022/06/19 05:26:41;;;;;;;17.42;4.50;;;25.90;66.90;;;;;;5047324;28;20046;-61
2022/06/19 05:29:08;;;;;;;12.18;4.68;;;25.90;66.90;;;;;;5045419;28;20041;-61
2022/06/19 05:31:34;;;;;;;11.60;4.57;;;25.90;66.90;;;;;;5021326;28;20111;-62
2022/06/19 05:33:59;;;;;;;7.45;3.67;;;25.90;66.90;;;;;;5049004;28;20122;-61
2022/06/19 05:36:28;;;;;;;9.82;4.68;;;25.90;67.00;;;;;;5047254;28;20327;-61
2022/06/19 05:38:54;;;;;;;14.60;5.10;;;25.90;67.10;;;;;;5022911;28;20099;-62
2022/06/19 05:41:19;;;;;;;10.48;4.38;;;25.90;67.20;;;;;;5035896;28;20265;-61
2022/06/19 05:43:47;;;;;;;13.45;4.47;;;25.90;67.10;;;;;;5024519;28;20426;-62
2022/06/19 05:46:14;;;;;;;14.80;5.18;;;25.90;67.20;;;;;;5011496;28;20102;-61
2022/06/19 05:48:40;;;;;;;14.68;4.68;;;25.90;67.40;;;;;;5013333;28;20138;-61
2022/06/19 05:51:14;;;;;;;11.82;4.43;;;25.90;67.30;;;;;;5025528;28;20105;-61
2022/06/19 05:53:42;;;;;;;14.70;4.72;;;26.00;67.40;;;;;;5027046;28;20507;-61
2022/06/19 05:56:07;;;;;;;14.93;4.72;;;25.90;67.60;;;;;;5026284;28;20033;-61
2022/06/19 05:58:33;;;;;;;10.63;4.32;;;25.90;67.30;;;;;;5028432;28;20353;-62
2022/06/19 06:00:58;;;;;;;15.73;4.45;;;25.90;67.00;;;;;;5047297;28;20484;-61
2022/06/19 06:03:24;;;;;;;15.77;4.47;;;26.00;67.10;;;;;;5037603;28;20041;-62
2022/06/19 06:05:50;;;;;;;14.23;4.38;;;25.90;67.40;;;;;;5030221;28;20060;-62
2022/06/19 06:08:16;;;;;;;12.60;4.82;;;26.00;67.60;;;;;;5009845;28;20495;-60
2022/06/19 06:10:41;;;;;;;14.55;4.60;;;26.00;67.70;;;;;;5012757;28;20044;-61
2022/06/19 06:13:07;;;;;;;10.02;4.45;;;26.00;67.80;;;;;;5032026;28;20104;-62
2022/06/19 06:15:32;;;;;;;14.43;4.72;;;26.00;67.40;;;;;;5031805;28;20057;-61
2022/06/19 06:17:59;;;;;;;11.27;4.13;;;26.00;66.90;;;;;;5032464;28;20029;-62
2022/06/19 06:20:25;;;;;;;8.18;4.40;;;26.00;66.80;;;;;;5007581;28;20051;-62
2022/06/19 06:22:50;;;;;;;11.35;4.82;;;26.10;66.90;;;;;;5021742;28;20663;-62
2022/06/19 06:25:16;;;;;;;9.60;4.30;;;26.00;66.60;;;;;;5008268;28;20123;-62
2022/06/19 06:27:41;;;;;;;14.50;4.47;;;26.10;66.80;;;;;;5050478;28;20358;-61
2022/06/19 06:30:07;;;;;;;8.07;4.20;;;26.00;67.60;;;;;;5050720;28;20032;-60
2022/06/19 06:32:33;;;;;;;13.88;4.45;;;26.10;67.90;;;;;;5015285;28;20040;-62
2022/06/19 06:34:58;;;;;;;8.50;4.10;;;26.10;67.70;;;;;;5030184;28;20040;-60
2022/06/19 06:37:24;;;;;;;12.43;4.22;;;26.10;67.80;;;;;;5049527;28;20142;-61
2022/06/19 06:39:49;;;;;;;12.90;4.60;;;26.10;68.20;;;;;;5047945;28;20227;-61
2022/06/19 06:42:15;;;;;;;9.85;4.25;;;26.10;68.50;;;;;;5032770;28;20037;-61
2022/06/19 06:44:40;;;;;;;9.52;4.47;;;26.10;68.60;;;;;;5031893;28;20028;-62
2022/06/19 06:47:06;;;;;;;9.18;4.82;;;26.10;68.50;;;;;;5028217;28;20033;-61
2022/06/19 06:49:31;;;;;;;13.88;4.88;;;26.10;68.60;;;;;;5047973;28;20029;-61
2022/06/19 06:51:57;;;;;;;11.85;4.50;;;26.10;68.70;;;;;;5050523;28;20029;-62
2022/06/19 06:54:22;;;;;;;13.38;4.57;;;26.20;68.80;;;;;;5029907;28;20025;-61
2022/06/19 06:56:48;;;;;;;10.52;4.63;;;26.30;68.90;;;;;;5019145;28;20025;-62
2022/06/19 06:59:14;;;;;;;11.35;4.70;;;26.20;68.70;;;;;;5026903;28;20131;-61
2022/06/19 07:01:40;;;;;;;13.02;4.55;;;26.20;68.80;;;;;;5023069;28;20055;-61
2022/06/19 07:04:05;;;;;;;15.23;4.43;;;26.20;68.80;;;;;;5030367;28;20055;-62
2022/06/19 07:06:31;;;;;;;16.63;5.13;;;26.20;68.80;;;;;;5049680;28;20061;-62
2022/06/19 07:08:57;;;;;;;12.43;4.78;;;26.20;68.70;;;;;;5029579;28;20104;-61
2022/06/19 07:11:27;;;;;;;11.55;4.22;;;26.20;68.70;;;;;;5047837;28;20610;-61
2022/06/19 07:13:53;;;;;;;9.82;4.90;;;26.30;68.80;;;;;;5032236;28;20535;-61
2022/06/19 07:16:18;;;;;;;14.90;5.38;;;26.30;68.60;;;;;;5044951;28;20096;-61
2022/06/19 07:18:44;;;;;;;16.40;5.22;;;26.30;68.80;;;;;;5053824;28;20032;-61
2022/06/19 07:21:13;;;;;;;10.70;4.63;;;26.30;68.50;;;;;;5042846;28;20018;-62
2022/06/19 07:23:39;;;;;;;11.50;4.75;;;26.30;68.40;;;;;;5027900;28;20413;-62
2022/06/19 07:26:10;;;;;;;13.57;4.68;;;26.40;68.40;;;;;;5015080;28;20116;-63
2022/06/19 07:28:36;;;;;;;12.65;4.40;;;26.40;68.30;;;;;;5030294;28;20025;-63
2022/06/19 07:31:01;;;;;;;14.18;4.45;;;26.40;68.30;;;;;;5040921;28;20084;-61
2022/06/19 07:33:27;;;;;;;11.52;4.68;;;26.40;68.30;;;;;;5028266;28;20025;-61
2022/06/19 07:35:53;;;;;;;14.52;4.32;;;26.40;68.00;;;;;;5044154;28;22256;-62
2022/06/19 07:38:18;;;;;;;10.60;4.20;;;26.40;68.00;;;;;;5039634;28;20434;-61
2022/06/19 07:40:44;;;;;;;15.27;5.07;;;26.50;67.80;;;;;;5045452;28;20053;-62
2022/06/19 07:43:09;;;;;;;13.80;4.00;;;26.50;67.40;;;;;;5027900;28;20064;-61
2022/06/19 07:45:35;;;;;;;14.27;4.72;;;26.50;67.30;;;;;;5048920;28;20029;-61
2022/06/19 07:50:47;;;;;;;11.73;4.80;;;26.50;66.80;;;;;;5030586;28;20095;-62
2022/06/19 07:53:12;;;;;;;11.27;4.43;;;26.60;66.60;;;;;;5046692;28;20037;-61
2022/06/19 07:55:39;;;;;;;12.48;4.85;;;26.60;66.50;;;;;;5048770;28;20052;-61
2022/06/19 07:58:05;;;;;;;14.25;4.63;;;26.60;66.20;;;;;;5037733;28;20029;-61
2022/06/19 08:00:32;;;;;;;12.80;5.63;;;26.60;66.00;;;;;;5011777;28;20035;-62
2022/06/19 08:02:57;;;;;;;16.35;4.82;;;26.70;65.80;;;;;;5010130;28;20469;-62
2022/06/19 08:05:25;;;;;;;19.77;4.75;;;26.70;65.20;;;;;;5024993;28;20028;-61
2022/06/19 08:07:52;;;;;;;14.15;4.72;;;26.70;64.80;;;;;;5032728;28;20461;-62
2022/06/19 08:10:21;;;;;;;14.75;4.80;;;26.80;64.80;;;;;;5047494;28;20013;-61
2022/06/19 08:12:47;;;;;;;17.23;5.10;;;26.80;64.70;;;;;;5012244;28;20021;-61
2022/06/19 08:15:13;;;;;;;16.73;5.10;;;26.80;64.80;;;;;;5028269;28;20028;-61
2022/06/19 08:17:38;;;;;;;19.30;5.13;;;26.80;64.80;;;;;;5039542;28;20034;-61
2022/06/19 08:20:05;;;;;;;19.17;5.00;;;26.90;64.80;;;;;;5024433;28;20037;-62
2022/06/19 08:22:30;;;;;;;20.27;5.10;;;26.90;64.90;;;;;;5024700;28;20378;-62
2022/06/19 08:24:56;;;;;;;22.65;5.20;;;27.00;65.00;;;;;;5031405;28;20028;-62
2022/06/19 08:27:21;;;;;;;18.23;5.40;;;27.00;65.20;;;;;;5025188;28;20123;-62
2022/06/19 08:29:47;;;;;;;29.20;6.28;;;27.10;65.00;;;;;;5049272;28;20515;-61
2022/06/19 08:32:12;;;;;;;24.38;5.97;;;27.10;65.10;;;;;;5048458;28;20052;-61
2022/06/19 08:34:38;;;;;;;30.80;6.75;;;27.10;65.00;;;;;;5029038;28;20033;-63
2022/06/19 08:37:04;;;;;;;53.63;8.38;;;27.20;65.20;;;;;;5010058;28;20045;-61
2022/06/19 08:39:29;;;;;;;33.63;7.18;;;27.20;65.20;;;;;;5025274;28;20175;-62
2022/06/19 08:42:11;;;;;;;40.20;7.68;;;27.30;65.20;;;;;;4993990;28;20101;-61
2022/06/19 08:45:14;;;;;;;41.85;7.60;;;27.30;65.60;;;;;;5021598;28;20034;-62
2022/06/19 08:48:24;;;;;;;40.47;7.78;;;27.30;65.70;;;;;;5026657;28;20050;-61
2022/06/19 08:51:01;;;;;;;49.53;7.93;;;27.30;65.70;;;;;;5019237;28;20032;-62
2022/06/19 08:53:40;;;;;;;43.75;8.35;;;27.40;65.70;;;;;;5005914;28;20042;-62
2022/06/19 08:56:20;;;;;;;66.80;10.43;;;27.40;66.00;;;;;;5004528;28;20018;-62
2022/06/19 08:58:55;;;;;;;68.80;10.45;;;27.50;66.30;;;;;;5021570;28;20402;-64
2022/06/19 09:01:46;;;;;;;72.70;12.55;;;27.50;66.50;;;;;;5021239;28;20021;-62
2022/06/19 09:07:04;;;;;;;75.18;11.07;;;27.60;67.00;;;;;;5022161;28;20040;-63
2022/06/19 09:09:48;;;;;;;101.20;14.10;;;27.60;66.80;;;;;;5016715;28;20141;-62
2022/06/19 09:12:32;;;;;;;72.85;12.60;;;27.70;66.90;;;;;;5006962;28;20673;-62
2022/06/19 09:15:13;;;;;;;101.38;12.65;;;27.70;66.70;;;;;;5026882;28;20060;-62
2022/06/19 09:17:42;;;;;;;100.72;13.48;;;27.80;66.90;;;;;;4989790;28;20025;-62
2022/06/19 09:20:34;;;;;;;77.18;12.82;;;27.80;67.30;;;;;;5015908;28;20497;-62
2022/06/19 09:23:38;;;;;;;84.85;13.50;;;27.90;67.50;;;;;;4997535;28;20036;-62
2022/06/19 09:26:32;;;;;;;105.72;14.73;;;27.90;67.50;;;;;;5012626;28;20041;-62
2022/06/19 09:29:00;;;;;;;78.90;12.75;;;28.00;68.00;;;;;;5021848;28;20044;-62
2022/06/19 09:31:37;;;;;;;89.68;15.43;;;28.00;68.00;;;;;;5020104;28;20091;-61
2022/06/19 09:34:16;;;;;;;123.25;14.60;;;28.10;68.20;;;;;;5020991;28;20033;-62
2022/06/19 09:37:05;;;;;;;113.18;14.85;;;28.10;67.80;;;;;;4991211;28;20068;-64
2022/06/19 09:39:37;;;;;;;96.05;15.35;;;28.10;68.10;;;;;;5021556;28;20066;-62
2022/06/19 09:42:20;;;;;;;100.95;16.75;;;28.10;68.40;;;;;;5025326;28;20040;-63
2022/06/19 09:45:06;;;;;;;101.53;14.93;;;28.20;68.70;;;;;;5028830;28;20104;-62
2022/06/19 09:47:34;;;;;;;103.22;15.57;;;28.30;69.00;;;;;;5009653;28;20022;-62
2022/06/19 09:50:04;;;;;;;110.40;15.13;;;28.40;68.80;;;;;;5022450;28;20033;-61
2022/06/19 09:52:40;;;;;;;117.90;16.55;;;28.40;68.80;;;;;;5017477;28;20115;-61
2022/06/19 09:55:30;;;;;;;87.22;15.20;;;28.40;68.70;;;;;;5003702;28;20032;-62
2022/06/19 09:58:03;;;;;;;87.97;13.68;;;28.50;68.90;;;;;;5011814;28;20041;-61
2022/06/19 10:00:29;;;;;;;130.55;17.05;;;28.50;68.80;;;;;;5025613;28;20022;-61
2022/06/19 10:03:10;;;;;;;114.57;14.57;;;28.50;68.90;;;;;;5007743;28;20434;-62
2022/06/19 10:05:49;;;;;;;125.25;15.70;;;28.60;69.10;;;;;;5022615;28;20036;-61
2022/06/19 10:08:37;;;;;;;85.22;14.65;;;28.60;68.90;;;;;;5020952;28;20485;-63
2022/06/19 10:11:04;;;;;;;121.78;16.63;;;28.70;68.80;;;;;;5019519;28;20029;-62
2022/06/19 10:13:45;;;;;;;97.40;15.35;;;28.70;68.50;;;;;;5021107;28;20097;-62
2022/06/19 10:16:44;;;;;;;99.55;16.67;;;28.70;68.40;;;;;;5005281;28;20025;-62
2022/06/19 10:19:31;;;;;;;121.63;16.40;;;28.80;68.60;;;;;;5026280;28;20026;-61
2022/06/19 10:22:26;;;;;;;103.38;17.02;;;28.80;68.30;;;;;;5022798;28;20017;-61
2022/06/19 10:25:02;;;;;;;89.97;14.95;;;28.80;68.30;;;;;;5004815;28;20120;-62
2022/06/19 10:27:38;;;;;;;78.63;14.02;;;28.90;67.80;;;;;;5024728;28;20033;-62
2022/06/19 10:30:18;;;;;;;106.75;15.05;;;29.00;67.80;;;;;;4997430;28;20103;-62
2022/06/19 10:33:03;;;;;;;89.47;16.73;;;29.00;67.60;;;;;;5006633;28;20045;-61
2022/06/19 10:35:36;;;;;;;91.43;13.50;;;29.10;67.30;;;;;;5015352;28;20022;-62
2022/06/19 10:38:16;;;;;;;68.50;12.70;;;29.10;66.80;;;;;;5020030;28;20064;-61
2022/06/19 10:40:49;;;;;;;69.05;12.88;;;29.20;66.60;;;;;;5016048;28;20032;-62
2022/06/19 10:43:48;;;;;;;102.47;16.45;;;29.20;66.40;;;;;;5021827;28;20056;-62
2022/06/19 10:46:14;;;;;;;87.00;15.18;;;29.30;66.30;;;;;;5019192;28;20553;-61
2022/06/19 10:49:01;;;;;;;135.43;19.45;;;29.30;66.10;;;;;;5022746;28;20049;-62
2022/06/19 10:51:56;;;;;;;93.72;14.95;;;29.40;66.20;;;;;;5038870;28;20025;-62
2022/06/19 10:54:27;;;;;;;82.25;14.40;;;29.50;65.80;;;;;;5003650;28;20033;-62
2022/06/19 10:57:22;;;;;;;68.72;12.05;;;29.60;65.40;;;;;;5021764;28;20339;-62
2022/06/19 10:59:47;;;;;;;84.03;15.80;;;29.70;64.80;;;;;;5020552;28;20076;-61
2022/06/19 11:05:23;;;;;;;82.38;14.18;;;29.80;64.30;;;;;;5023083;28;20103;-62
2022/06/19 11:07:49;;;;;;;54.40;12.30;;;30.00;64.10;;;;;;5003708;28;20017;-62
2022/06/19 11:10:19;;;;;;;72.80;12.45;;;30.10;63.80;;;;;;5014405;28;20053;-62
2022/06/19 11:12:47;;;;;;;77.10;12.27;;;30.10;63.30;;;;;;5018918;28;20030;-61
2022/06/19 11:15:29;;;;;;;75.35;14.02;;;30.20;63.10;;;;;;5022104;28;20041;-61
2022/06/19 11:18:11;;;;;;;62.58;12.00;;;30.30;62.90;;;;;;5011440;28;20026;-62
2022/06/19 11:20:37;;;;;;;72.70;12.85;;;30.50;62.30;;;;;;5024052;28;20049;-63
2022/06/19 11:23:15;;;;;;;84.30;12.82;;;30.50;61.70;;;;;;5021510;28;20471;-63
2022/06/19 11:25:41;;;;;;;55.40;12.15;;;30.60;61.50;;;;;;5022261;28;20049;-62
2022/06/19 11:28:14;;;;;;;67.72;11.13;;;30.70;61.00;;;;;;5004029;28;20481;-62
2022/06/19 11:30:48;;;;;;;52.00;10.57;;;30.90;61.00;;;;;;4997265;28;20091;-62
2022/06/19 11:33:29;;;;;;;49.45;10.43;;;31.00;60.60;;;;;;5025431;28;20053;-62
2022/06/19 11:35:57;;;;;;;60.80;10.43;;;31.00;60.20;;;;;;5032939;28;20493;-61
2022/06/19 11:38:32;;;;;;;37.13;8.90;;;31.00;60.00;;;;;;5010420;28;20040;-62
2022/06/19 11:40:57;;;;;;;42.87;9.53;;;31.20;59.70;;;;;;5050066;28;20025;-62
2022/06/19 11:43:27;;;;;;;30.30;8.63;;;31.30;60.00;;;;;;5012197;28;20079;-63
2022/06/19 11:45:58;;;;;;;45.35;9.02;;;31.30;59.80;;;;;;5025336;28;20033;-62
2022/06/19 11:48:25;;;;;;;27.33;9.00;;;31.40;59.10;;;;;;4987185;28;20398;-62
2022/06/19 11:50:51;;;;;;;34.88;8.07;;;31.50;58.60;;;;;;5010491;28;20079;-63
2022/06/19 11:53:25;;;;;;;35.05;7.70;;;31.50;58.20;;;;;;5013945;28;20036;-62
2022/06/19 11:55:52;;;;;;;20.48;6.72;;;31.60;57.60;;;;;;5023884;28;20013;-62
2022/06/19 11:58:35;;;;;;;32.20;7.78;;;31.80;57.30;;;;;;5031427;28;20021;-62
2022/06/19 12:01:15;;;;;;;19.52;7.47;;;31.80;57.30;;;;;;5004205;28;20049;-63
2022/06/19 12:03:46;;;;;;;24.48;7.03;;;31.90;57.00;;;;;;5041794;28;20182;-63
2022/06/19 12:06:12;;;;;;;31.25;7.25;;;31.90;56.60;;;;;;5040246;28;20039;-62
2022/06/19 12:08:59;;;;;;;27.02;7.13;;;32.00;56.70;;;;;;5010205;28;20024;-62
2022/06/19 12:11:39;;;;;;;17.17;6.90;;;32.10;56.20;;;;;;5029646;28;20041;-62
2022/06/19 12:14:08;;;;;;;18.02;6.63;;;32.20;55.80;;;;;;5018429;28;20033;-63
2022/06/19 12:16:34;;;;;;;16.25;6.75;;;32.30;55.60;;;;;;5005750;28;20472;-63
2022/06/19 12:19:22;;;;;;;23.05;7.10;;;32.50;55.50;;;;;;5043385;28;20234;-62
2022/06/19 12:21:57;;;;;;;21.42;6.75;;;32.50;55.40;;;;;;5030251;28;20032;-63
2022/06/19 12:24:38;;;;;;;18.38;6.43;;;32.60;55.00;;;;;;5045603;28;20059;-63
2022/06/19 12:27:03;;;;;;;12.13;6.13;;;32.70;55.30;;;;;;5013570;28;20086;-61
2022/06/19 12:29:33;;;;;;;14.90;6.50;;;32.80;55.00;;;;;;5018127;28;20028;-63
2022/06/19 12:32:04;;;;;;;24.58;6.68;;;32.80;54.90;;;;;;5008724;28;20041;-62
2022/06/19 12:34:36;;;;;;;21.23;6.75;;;32.90;54.80;;;;;;5023030;28;20082;-63
2022/06/19 12:37:01;;;;;;;32.47;6.72;;;33.00;54.50;;;;;;5027836;28;20140;-62
2022/06/19 12:39:29;;;;;;;18.15;6.40;;;33.00;54.40;;;;;;5054956;28;20135;-63
2022/06/19 12:42:13;;;;;;;18.58;6.80;;;33.10;53.90;;;;;;5027434;28;20360;-62
2022/06/19 12:44:55;;;;;;;16.92;6.30;;;33.10;53.90;;;;;;5032588;28;20028;-63
2022/06/19 12:47:50;;;;;;;26.63;6.97;;;33.20;53.70;;;;;;5012059;28;20057;-62
2022/06/19 12:50:44;;;;;;;16.93;5.83;;;33.30;53.60;;;;;;5027482;28;20512;-63
2022/06/19 12:53:40;;;;;;;26.98;6.60;;;33.40;53.60;;;;;;5011994;28;20277;-63
2022/06/19 12:56:10;;;;;;;19.77;6.25;;;33.50;52.80;;;;;;5041783;28;20036;-63
2022/06/19 12:59:02;;;;;;;19.35;6.25;;;33.60;52.00;;;;;;5026522;28;20025;-64
2022/06/19 13:02:06;;;;;;;23.58;6.35;;;33.60;51.70;;;;;;5041688;28;20488;-63
2022/06/19 13:05:13;;;;;;;25.20;6.47;;;33.70;52.20;;;;;;5025233;28;20079;-70